Time;durP1;ratioP1;P1;durP2;ratioP2;P2;SDS_P1;SDS_P2;PMS_P1;PMS_P2;Temp;Humidity;BMP_temperature;BMP_pressure;BME280_temperature;BME280_humidity;BME280_pressure;Samples;Min_cycle;Max_cycle;Signal;HPM_P1;HPM_P2
2023/05/23 00:00:18;;;;;;;11.45;5.80;;;14.30;71.60;;;;;;4726183;30;20459;-87
2023/05/23 00:02:45;;;;;;;11.10;5.83;;;14.20;71.90;;;;;;4735266;30;20053;-88
2023/05/23 00:05:14;;;;;;;11.02;5.38;;;14.20;72.10;;;;;;4720792;30;20512;-87
2023/05/23 00:07:41;;;;;;;12.73;4.88;;;14.10;72.10;;;;;;4734997;30;20110;-87
2023/05/23 00:10:09;;;;;;;10.77;4.82;;;14.00;72.60;;;;;;4735163;30;20049;-88
2023/05/23 00:12:41;;;;;;;10.30;4.93;;;14.10;72.30;;;;;;4735063;30;20053;-87
2023/05/23 00:15:08;;;;;;;9.83;5.10;;;14.00;72.40;;;;;;4735156;30;20053;-88
2023/05/23 00:17:37;;;;;;;11.30;5.40;;;14.00;72.40;;;;;;4731879;30;20115;-88
2023/05/23 00:20:08;;;;;;;10.30;5.03;;;14.00;72.40;;;;;;4733778;30;20089;-88
2023/05/23 00:22:40;;;;;;;10.52;5.00;;;14.10;72.40;;;;;;4735160;30;20053;-88
2023/05/23 00:25:09;;;;;;;10.32;5.05;;;14.10;72.40;;;;;;4749487;30;20049;-88
2023/05/23 00:27:36;;;;;;;12.97;5.30;;;14.10;72.10;;;;;;4733639;30;20507;-88
2023/05/23 00:30:06;;;;;;;10.20;4.80;;;14.10;72.10;;;;;;4734607;30;20060;-88
2023/05/23 00:32:34;;;;;;;13.48;5.05;;;14.10;71.90;;;;;;4734432;30;20052;-87
2023/05/23 00:35:01;;;;;;;10.88;5.22;;;14.10;72.00;;;;;;4720223;30;20052;-88
2023/05/23 00:37:28;;;;;;;10.32;5.05;;;14.00;72.00;;;;;;4734203;30;20076;-87
2023/05/23 00:39:55;;;;;;;10.43;5.30;;;14.00;72.00;;;;;;4720315;30;20507;-87
2023/05/23 00:42:22;;;;;;;10.70;4.53;;;14.00;72.10;;;;;;4734863;30;20084;-87
2023/05/23 00:44:51;;;;;;;11.85;5.60;;;14.10;71.60;;;;;;4734875;30;20052;-88
2023/05/23 00:47:18;;;;;;;11.23;4.55;;;14.20;71.30;;;;;;4722563;30;20053;-88
2023/05/23 00:49:46;;;;;;;10.82;4.75;;;14.20;71.40;;;;;;4724296;30;20176;-87
2023/05/23 00:52:14;;;;;;;11.23;5.10;;;14.10;71.30;;;;;;4734663;30;20051;-88
2023/05/23 00:54:41;;;;;;;8.15;4.45;;;14.10;71.30;;;;;;4720088;30;20056;-88
2023/05/23 00:57:09;;;;;;;12.05;5.47;;;14.00;71.40;;;;;;4729755;30;20079;-88
2023/05/23 00:59:37;;;;;;;9.25;4.63;;;14.10;71.50;;;;;;4749341;30;20127;-88
2023/05/23 01:02:04;;;;;;;9.30;4.75;;;14.10;71.20;;;;;;4723563;30;20087;-87
2023/05/23 01:04:32;;;;;;;12.93;5.40;;;14.10;70.90;;;;;;4720118;30;20063;-88
2023/05/23 01:07:00;;;;;;;11.60;4.82;;;14.10;71.10;;;;;;4731623;30;20065;-88
2023/05/23 01:09:28;;;;;;;10.23;4.60;;;14.10;70.90;;;;;;4731638;30;20528;-88
2023/05/23 01:12:16;;;;;;;10.85;4.63;;;14.00;70.80;;;;;;4734522;30;20073;-88
2023/05/23 01:15:00;;;;;;;11.00;5.20;;;14.00;71.20;;;;;;4749113;30;20053;-88
2023/05/23 01:17:57;;;;;;;12.70;4.90;;;14.00;71.70;;;;;;4732930;30;20068;-88
2023/05/23 01:20:37;;;;;;;13.27;5.40;;;13.90;72.00;;;;;;4682772;30;20049;-88
2023/05/23 01:23:35;;;;;;;13.25;5.53;;;13.80;72.60;;;;;;4720096;30;20060;-88
2023/05/23 01:26:08;;;;;;;12.18;5.20;;;13.70;73.00;;;;;;4719846;30;20467;-88
2023/05/23 01:28:44;;;;;;;11.13;5.60;;;13.60;73.20;;;;;;4719875;30;20060;-88
2023/05/23 01:31:12;;;;;;;12.70;5.80;;;13.50;73.40;;;;;;4731339;30;20088;-88
2023/05/23 01:33:40;;;;;;;12.18;6.13;;;13.50;73.70;;;;;;4734359;30;20049;-88
2023/05/23 01:36:08;;;;;;;12.40;6.05;;;13.40;73.80;;;;;;4719999;30;20052;-88
2023/05/23 01:38:35;;;;;;;11.32;5.75;;;13.30;73.90;;;;;;4716826;30;20049;-89
2023/05/23 01:41:03;;;;;;;13.95;5.93;;;13.50;73.70;;;;;;4732831;30;20049;-88
2023/05/23 01:43:30;;;;;;;12.07;5.70;;;13.50;73.70;;;;;;4734558;30;20497;-89
2023/05/23 01:45:59;;;;;;;13.18;5.60;;;13.50;73.70;;;;;;4734098;30;20059;-88
2023/05/23 01:48:27;;;;;;;9.35;5.20;;;13.50;73.50;;;;;;4734070;30;20055;-88
2023/05/23 01:50:56;;;;;;;10.65;5.25;;;13.50;73.50;;;;;;4752136;30;20083;-88
2023/05/23 01:53:27;;;;;;;9.95;5.05;;;13.50;73.40;;;;;;4737239;30;20053;-88
2023/05/23 01:55:54;;;;;;;9.60;4.97;;;13.50;73.70;;;;;;4733660;30;20056;-88
2023/05/23 01:58:21;;;;;;;10.85;4.60;;;13.40;73.70;;;;;;4737189;30;20048;-88
2023/05/23 02:00:49;;;;;;;12.52;5.43;;;13.40;73.80;;;;;;4732904;30;20144;-88
2023/05/23 02:03:16;;;;;;;11.40;5.43;;;13.40;73.80;;;;;;4722429;30;20449;-88
2023/05/23 02:05:44;;;;;;;12.10;4.60;;;13.40;73.80;;;;;;4737289;30;20114;-88
2023/05/23 02:08:11;;;;;;;9.07;4.63;;;13.30;73.80;;;;;;4730867;30;20079;-87
2023/05/23 02:10:38;;;;;;;11.70;4.82;;;13.30;74.00;;;;;;4736738;30;20102;-88
2023/05/23 02:13:05;;;;;;;11.63;5.43;;;13.30;74.00;;;;;;4736967;30;20500;-88
2023/05/23 02:15:32;;;;;;;10.27;4.53;;;13.30;74.10;;;;;;4733711;30;20075;-88
2023/05/23 02:18:01;;;;;;;11.50;5.40;;;13.30;74.10;;;;;;4737054;30;20385;-88
2023/05/23 02:24:20;;;;;;;10.23;4.70;;;13.30;73.90;;;;;;4735713;30;20596;-87
2023/05/23 02:27:04;;;;;;;12.55;5.60;;;13.30;74.10;;;;;;4736848;30;20076;-88
2023/05/23 02:29:33;;;;;;;11.10;5.60;;;13.30;74.00;;;;;;4722294;30;20053;-88
2023/05/23 02:32:13;;;;;;;10.40;4.93;;;13.30;74.10;;;;;;4736143;30;20420;-88
2023/05/23 02:39:24;;;;;;;8.77;4.60;;;13.30;74.20;;;;;;4737834;30;20035;-91
2023/05/23 02:43:55;;;;;;;11.15;5.03;;;13.30;74.20;;;;;;4701879;30;20199;-91
2023/05/23 02:46:22;;;;;;;13.27;5.47;;;13.30;74.20;;;;;;4686995;30;20060;-91
2023/05/23 02:48:49;;;;;;;13.00;5.35;;;13.30;74.10;;;;;;4701959;30;20156;-91
2023/05/23 02:51:17;;;;;;;10.37;5.53;;;13.20;74.20;;;;;;4698236;30;20062;-93
2023/05/23 02:53:44;;;;;;;12.27;5.32;;;13.30;74.00;;;;;;4698247;30;20140;-92
2023/05/23 02:56:12;;;;;;;11.68;5.63;;;13.30;74.00;;;;;;4683659;30;20061;-92
2023/05/23 02:58:39;;;;;;;11.35;5.25;;;13.20;74.20;;;;;;4697953;30;20557;-93
2023/05/23 03:01:07;;;;;;;13.57;5.70;;;13.30;74.30;;;;;;4697558;30;20111;-92
2023/05/23 03:03:34;;;;;;;13.70;5.90;;;13.20;74.50;;;;;;4698409;30;20114;-92
2023/05/23 03:06:03;;;;;;;12.43;5.50;;;13.20;74.50;;;;;;4698086;30;20153;-93
2023/05/23 03:08:31;;;;;;;11.40;5.15;;;13.10;74.70;;;;;;4698133;30;20582;-92
2023/05/23 03:10:58;;;;;;;10.10;4.90;;;13.20;74.70;;;;;;4697747;30;20054;-92
2023/05/23 03:13:25;;;;;;;12.77;4.90;;;13.20;74.80;;;;;;4722670;30;20057;-92
2023/05/23 03:15:52;;;;;;;15.90;5.27;;;13.20;74.70;;;;;;4718353;30;20061;-92
2023/05/23 03:18:20;;;;;;;10.95;4.75;;;13.20;74.40;;;;;;4733172;30;20057;-92
2023/05/23 03:20:47;;;;;;;10.82;5.20;;;13.30;74.30;;;;;;4733121;30;20057;-92
2023/05/23 03:23:14;;;;;;;10.45;5.32;;;13.30;74.40;;;;;;4732870;30;20111;-92
2023/05/23 03:25:42;;;;;;;9.13;4.35;;;13.20;74.40;;;;;;4733133;30;20431;-92
2023/05/23 03:28:11;;;;;;;11.97;5.27;;;13.30;74.50;;;;;;4732822;30;20057;-92
2023/05/23 03:30:38;;;;;;;13.77;4.45;;;13.20;74.70;;;;;;4733236;30;20053;-90
2023/05/23 03:33:06;;;;;;;14.18;4.50;;;13.20;74.60;;;;;;4732569;30;20049;-93
2023/05/23 03:35:33;;;;;;;10.38;4.60;;;13.20;74.50;;;;;;4732828;30;20057;-90
2023/05/23 03:38:01;;;;;;;10.20;4.75;;;13.30;74.50;;;;;;4718401;30;20056;-90
2023/05/23 03:40:28;;;;;;;11.40;5.27;;;13.30;74.50;;;;;;4717990;30;20045;-90
2023/05/23 03:43:05;;;;;;;10.60;5.53;;;13.40;74.50;;;;;;4733492;30;20064;-90
2023/05/23 03:45:35;;;;;;;10.85;5.00;;;13.40;74.40;;;;;;4721756;30;20063;-90
2023/05/23 03:48:09;;;;;;;10.93;5.10;;;13.50;74.20;;;;;;4749567;30;20057;-90
2023/05/23 03:50:37;;;;;;;10.13;5.07;;;13.50;74.10;;;;;;4720743;30;20061;-90
2023/05/23 03:53:06;;;;;;;10.30;4.97;;;13.50;74.10;;;;;;4721097;30;20467;-90
2023/05/23 03:55:33;;;;;;;10.75;5.30;;;13.50;74.00;;;;;;4720684;30;20079;-90
2023/05/23 03:58:01;;;;;;;8.95;4.90;;;13.50;74.00;;;;;;4720695;30;20053;-90
2023/05/23 04:00:28;;;;;;;10.07;4.85;;;13.60;73.90;;;;;;4735222;30;20059;-89
2023/05/23 04:02:57;;;;;;;9.80;4.72;;;13.60;73.90;;;;;;4734785;30;20057;-89
2023/05/23 04:05:25;;;;;;;11.03;5.00;;;13.60;73.90;;;;;;4720877;30;20065;-89
2023/05/23 04:07:52;;;;;;;11.20;5.20;;;13.60;73.80;;;;;;4720586;30;20147;-88
2023/05/23 04:10:19;;;;;;;14.23;5.15;;;13.60;73.80;;;;;;4735081;30;20057;-88
2023/05/23 04:12:47;;;;;;;12.07;5.53;;;13.60;73.80;;;;;;4734124;30;20053;-89
2023/05/23 04:15:16;;;;;;;12.55;5.60;;;13.60;73.50;;;;;;4720624;30;20052;-89
2023/05/23 04:18:08;;;;;;;10.40;4.67;;;13.60;73.40;;;;;;4733125;30;20560;-88
2023/05/23 04:20:36;;;;;;;9.77;4.53;;;13.60;73.60;;;;;;4735087;30;20052;-89
2023/05/23 04:23:04;;;;;;;11.65;5.25;;;13.70;73.50;;;;;;4734868;30;20056;-88
2023/05/23 04:25:34;;;;;;;10.48;4.47;;;13.70;73.50;;;;;;4734684;30;20053;-89
2023/05/23 04:28:12;;;;;;;10.68;4.70;;;13.70;73.50;;;;;;4733527;30;20048;-89
2023/05/23 04:30:41;;;;;;;11.73;4.93;;;13.80;73.60;;;;;;4734696;30;20093;-89
2023/05/23 04:33:09;;;;;;;9.63;4.68;;;14.00;73.50;;;;;;4734496;30;20401;-89
2023/05/23 04:35:39;;;;;;;11.20;5.45;;;14.00;72.80;;;;;;4735239;30;20099;-89
2023/05/23 04:38:07;;;;;;;11.30;4.85;;;14.20;72.60;;;;;;4734681;30;20065;-89
2023/05/23 04:40:34;;;;;;;9.90;4.68;;;14.30;72.60;;;;;;4735025;30;20143;-89
2023/05/23 04:43:25;;;;;;;10.80;5.10;;;14.40;72.20;;;;;;4699873;30;20057;-89
2023/05/23 04:45:56;;;;;;;10.45;4.40;;;14.50;71.90;;;;;;4734686;30;20056;-89
2023/05/23 04:48:43;;;;;;;9.93;4.82;;;14.70;71.70;;;;;;4720173;30;20053;-89
2023/05/23 04:51:10;;;;;;;9.07;4.90;;;14.80;71.00;;;;;;4734534;30;20059;-88
2023/05/23 04:53:58;;;;;;;9.40;4.55;;;15.00;70.80;;;;;;4734254;30;20512;-88
2023/05/23 04:56:27;;;;;;;10.07;4.30;;;15.00;70.40;;;;;;4720414;30;20084;-88
2023/05/23 04:58:54;;;;;;;10.90;4.97;;;15.20;70.60;;;;;;4734661;30;20086;-89
2023/05/23 05:01:23;;;;;;;9.75;4.75;;;15.30;69.80;;;;;;4720229;30;20052;-90
2023/05/23 05:03:51;;;;;;;10.60;5.07;;;15.40;70.10;;;;;;4720298;30;20052;-89
2023/05/23 05:06:18;;;;;;;9.13;4.53;;;15.50;69.30;;;;;;4722829;30;20048;-91
2023/05/23 05:08:46;;;;;;;14.53;4.63;;;15.60;69.60;;;;;;4734956;30;20052;-90
2023/05/23 05:11:13;;;;;;;10.10;4.57;;;15.80;69.30;;;;;;4749211;30;20059;-91
2023/05/23 05:13:41;;;;;;;8.93;4.78;;;15.90;68.90;;;;;;4748920;30;20059;-90
2023/05/23 05:16:08;;;;;;;11.48;5.00;;;16.10;67.90;;;;;;4734662;30;20468;-93
2023/05/23 05:18:35;;;;;;;26.88;5.80;;;16.20;68.10;;;;;;4723769;30;20524;-93
2023/05/23 05:21:02;;;;;;;12.07;4.53;;;16.40;68.00;;;;;;4735123;30;20048;-93
2023/05/23 05:23:30;;;;;;;10.70;4.90;;;16.60;67.80;;;;;;4734661;30;20052;-93
2023/05/23 05:25:59;;;;;;;9.15;4.50;;;16.70;67.00;;;;;;4735303;30;20059;-93
2023/05/23 05:28:26;;;;;;;10.68;5.10;;;16.80;67.00;;;;;;4735566;30;20061;-93
2023/05/23 05:30:54;;;;;;;9.50;4.90;;;16.90;67.20;;;;;;4737831;30;20114;-92
2023/05/23 05:33:24;;;;;;;9.23;5.10;;;17.00;65.90;;;;;;4737925;30;20479;-93
2023/05/23 05:36:05;;;;;;;9.18;4.30;;;17.00;66.40;;;;;;4736966;30;20056;-92
2023/05/23 05:38:33;;;;;;;10.30;5.00;;;17.10;66.10;;;;;;4737993;30;20053;-90
2023/05/23 05:41:00;;;;;;;8.82;4.85;;;17.30;66.10;;;;;;4737774;30;20049;-90
2023/05/23 05:43:32;;;;;;;9.73;4.72;;;17.40;65.70;;;;;;4737542;30;20151;-91
2023/05/23 05:45:59;;;;;;;10.77;4.27;;;17.50;65.50;;;;;;4725433;30;20056;-89
2023/05/23 05:48:26;;;;;;;11.27;4.60;;;17.50;64.80;;;;;;4737835;30;20045;-90
2023/05/23 05:50:55;;;;;;;11.93;4.97;;;17.70;65.70;;;;;;4720256;30;20467;-90
2023/05/23 05:53:22;;;;;;;10.50;4.63;;;17.80;65.10;;;;;;4720055;30;20045;-90
2023/05/23 05:55:50;;;;;;;10.65;4.72;;;17.90;65.20;;;;;;4719925;30;20512;-90
2023/05/23 05:58:17;;;;;;;9.80;4.43;;;18.00;65.60;;;;;;4719668;30;20061;-90
2023/05/23 06:00:53;;;;;;;15.15;5.15;;;18.20;65.40;;;;;;4705647;30;20057;-91
2023/05/23 06:03:22;;;;;;;10.27;5.15;;;18.40;64.90;;;;;;4719949;30;20053;-90
2023/05/23 06:05:56;;;;;;;15.10;5.40;;;18.50;64.60;;;;;;4723837;30;20056;-90
2023/05/23 06:08:23;;;;;;;93.82;9.55;;;18.70;64.60;;;;;;4737276;30;20512;-90
2023/05/23 06:10:50;;;;;;;14.30;5.13;;;18.80;64.40;;;;;;4722665;30;20052;-90
2023/05/23 06:13:30;;;;;;;9.70;4.40;;;18.90;64.40;;;;;;4737498;30;20144;-90
2023/05/23 06:15:57;;;;;;;11.85;5.47;;;19.00;63.60;;;;;;4722426;30;21717;-91
2023/05/23 06:18:25;;;;;;;12.50;5.50;;;19.20;63.40;;;;;;4737112;30;20122;-91
2023/05/23 06:20:52;;;;;;;9.23;4.95;;;19.40;62.70;;;;;;4736933;30;20048;-90
2023/05/23 06:23:20;;;;;;;9.67;5.00;;;19.50;62.80;;;;;;4737094;30;20504;-90
2023/05/23 06:25:48;;;;;;;10.95;4.93;;;19.60;61.90;;;;;;4728604;30;20416;-90
2023/05/23 06:28:15;;;;;;;14.27;5.35;;;19.80;63.20;;;;;;4722424;30;20491;-90
2023/05/23 06:30:44;;;;;;;33.17;6.25;;;19.90;61.80;;;;;;4736544;30;20136;-91
2023/05/23 06:33:12;;;;;;;8.55;4.80;;;20.00;61.20;;;;;;4736690;30;20040;-90
2023/05/23 06:35:41;;;;;;;10.83;4.37;;;20.10;61.30;;;;;;4735865;30;20048;-91
2023/05/23 06:38:08;;;;;;;9.10;4.95;;;20.30;60.90;;;;;;4736643;30;20063;-90
2023/05/23 06:40:35;;;;;;;10.60;4.50;;;20.30;61.90;;;;;;4736761;30;20084;-90
2023/05/23 06:43:02;;;;;;;8.40;4.20;;;20.50;59.80;;;;;;4736675;30;20067;-92
2023/05/23 06:45:37;;;;;;;11.00;4.25;;;20.60;60.40;;;;;;4736667;30;20056;-93
2023/05/23 06:48:05;;;;;;;9.17;4.30;;;20.80;61.30;;;;;;4722044;30;20061;-92
2023/05/23 06:50:37;;;;;;;8.55;4.32;;;21.00;59.00;;;;;;4722737;30;20078;-92
2023/05/23 06:53:07;;;;;;;9.05;4.70;;;21.10;59.10;;;;;;4734624;30;20139;-92
2023/05/23 06:55:34;;;;;;;8.20;4.40;;;21.20;59.30;;;;;;4739678;30;20056;-92
2023/05/23 06:58:03;;;;;;;9.85;4.82;;;21.40;59.10;;;;;;4724527;30;20044;-92
2023/05/23 07:00:32;;;;;;;8.90;4.10;;;21.50;58.40;;;;;;4750957;30;20076;-92
2023/05/23 07:03:10;;;;;;;8.20;4.32;;;21.70;58.40;;;;;;4734460;30;20049;-92
2023/05/23 07:05:38;;;;;;;10.98;4.40;;;21.80;59.10;;;;;;4736799;30;20049;-93
2023/05/23 07:08:11;;;;;;;8.10;4.40;;;21.90;57.60;;;;;;4734817;30;20052;-92
2023/05/23 07:10:46;;;;;;;9.35;4.28;;;22.00;58.50;;;;;;4752016;30;20057;-92
2023/05/23 07:13:30;;;;;;;10.87;4.30;;;22.00;56.60;;;;;;4734672;30;20037;-92
2023/05/23 07:15:58;;;;;;;8.50;4.35;;;22.10;57.30;;;;;;4735564;30;20117;-92
2023/05/23 07:18:25;;;;;;;9.00;3.80;;;22.10;56.60;;;;;;4721228;30;20051;-92
2023/05/23 07:20:53;;;;;;;8.35;3.97;;;22.20;55.00;;;;;;4750288;30;20044;-93
2023/05/23 07:23:23;;;;;;;8.43;4.10;;;22.30;54.20;;;;;;4736347;30;20049;-93
2023/05/23 07:25:50;;;;;;;7.83;3.80;;;22.50;55.10;;;;;;4745323;30;20487;-93
2023/05/23 07:28:47;;;;;;;9.52;4.07;;;22.60;54.50;;;;;;4725664;30;20073;-92
2023/05/23 07:31:14;;;;;;;10.20;4.15;;;22.80;54.80;;;;;;4735753;30;20052;-92
2023/05/23 07:33:43;;;;;;;9.55;4.25;;;22.70;53.20;;;;;;4750443;30;20076;-93
2023/05/23 07:36:15;;;;;;;9.68;4.15;;;22.80;53.30;;;;;;4722244;30;20057;-92
2023/05/23 07:38:43;;;;;;;8.47;4.00;;;22.90;55.60;;;;;;4720844;30;20063;-91
2023/05/23 07:41:10;;;;;;;9.85;4.18;;;23.10;55.90;;;;;;4733503;30;20049;-94
2023/05/23 07:43:39;;;;;;;9.38;4.22;;;23.10;55.50;;;;;;4723527;30;20147;-93
2023/05/23 07:46:07;;;;;;;11.25;4.97;;;23.10;53.30;;;;;;4735492;30;20048;-93
2023/05/23 07:48:36;;;;;;;12.52;5.32;;;23.10;54.60;;;;;;4718368;30;20402;-94
2023/05/23 07:51:04;;;;;;;12.30;4.50;;;23.30;53.90;;;;;;4718373;30;20057;-93
2023/05/23 07:53:38;;;;;;;13.35;4.65;;;23.40;53.00;;;;;;4704235;30;20049;-94
2023/05/23 07:56:18;;;;;;;8.73;5.07;;;23.40;53.60;;;;;;4720502;30;20053;-90
2023/05/23 07:58:45;;;;;;;10.55;5.32;;;23.40;54.40;;;;;;4735186;30;20068;-91
2023/05/23 08:01:13;;;;;;;15.40;7.93;;;23.50;56.30;;;;;;4734995;30;20052;-91
2023/05/23 08:04:05;;;;;;;9.77;4.97;;;23.50;54.40;;;;;;4721006;30;20056;-91
2023/05/23 08:06:56;;;;;;;9.90;4.53;;;23.60;54.50;;;;;;4734142;30;20056;-93
2023/05/23 08:09:34;;;;;;;9.43;4.75;;;23.50;55.10;;;;;;4735524;30;20057;-96
2023/05/23 08:12:04;;;;;;;10.75;5.35;;;23.50;55.30;;;;;;4735569;30;20129;-95
2023/05/23 08:14:32;;;;;;;11.93;5.53;;;23.60;54.30;;;;;;4735970;30;20072;-94
2023/05/23 08:17:42;;;;;;;10.13;5.40;;;23.60;55.10;;;;;;4726256;30;20060;-93
2023/05/23 08:20:11;;;;;;;12.13;5.25;;;23.80;53.50;;;;;;4735687;30;20056;-95
2023/05/23 08:22:39;;;;;;;12.90;5.30;;;23.80;54.20;;;;;;4736156;30;20052;-94
2023/05/23 08:25:09;;;;;;;15.00;5.47;;;23.90;53.10;;;;;;4735670;30;20045;-95
2023/05/23 08:27:39;;;;;;;12.30;4.97;;;24.00;53.10;;;;;;4735976;30;20045;-91
2023/05/23 08:30:26;;;;;;;10.20;4.97;;;24.10;52.80;;;;;;4735549;30;20052;-93
2023/05/23 08:32:59;;;;;;;10.82;5.38;;;24.10;52.10;;;;;;4735310;30;20044;-92
2023/05/23 08:35:28;;;;;;;9.57;4.60;;;24.20;51.50;;;;;;4735222;30;20053;-92
2023/05/23 08:37:57;;;;;;;14.25;4.97;;;24.20;52.60;;;;;;4735365;30;20496;-92
2023/05/23 08:40:28;;;;;;;11.50;5.00;;;24.30;52.60;;;;;;4735611;30;20574;-92
2023/05/23 08:43:03;;;;;;;11.20;5.30;;;24.30;52.00;;;;;;4731040;30;20056;-92
2023/05/23 08:45:31;;;;;;;10.60;4.60;;;24.40;54.10;;;;;;4720758;30;20409;-93
2023/05/23 08:48:00;;;;;;;9.93;4.88;;;24.50;55.00;;;;;;4723432;30;20531;-91
2023/05/23 08:50:30;;;;;;;9.98;4.70;;;24.60;52.10;;;;;;4734179;30;20048;-91
2023/05/23 08:52:58;;;;;;;10.57;4.60;;;24.60;50.70;;;;;;4720182;30;20048;-91
2023/05/23 08:55:29;;;;;;;9.40;5.07;;;24.60;52.20;;;;;;4733949;30;20059;-91
2023/05/23 08:57:59;;;;;;;10.38;5.03;;;24.60;53.00;;;;;;4736749;30;20052;-91
2023/05/23 09:00:37;;;;;;;9.90;4.60;;;24.80;53.80;;;;;;4740190;30;20057;-91
2023/05/23 09:03:08;;;;;;;10.52;5.38;;;24.90;53.20;;;;;;4725749;30;20052;-91
2023/05/23 09:05:50;;;;;;;10.65;5.18;;;24.80;52.60;;;;;;4740507;30;20094;-91
2023/05/23 09:08:19;;;;;;;10.63;5.43;;;24.90;53.60;;;;;;4725884;30;20048;-92
2023/05/23 09:10:50;;;;;;;9.02;5.30;;;25.00;52.70;;;;;;4741237;30;20584;-92
2023/05/23 09:13:19;;;;;;;10.68;4.82;;;25.10;52.20;;;;;;4740257;30;20059;-91
2023/05/23 09:16:09;;;;;;;10.25;4.82;;;25.10;51.90;;;;;;4725527;30;20083;-91
2023/05/23 09:18:45;;;;;;;9.85;5.20;;;25.20;51.50;;;;;;4726817;30;20579;-91
2023/05/23 09:21:14;;;;;;;13.20;5.47;;;25.20;52.40;;;;;;4740022;30;20045;-92
2023/05/23 09:24:01;;;;;;;10.32;5.38;;;25.30;50.90;;;;;;4738604;30;20052;-95
2023/05/23 09:26:31;;;;;;;128.57;11.27;;;25.50;53.20;;;;;;4736110;30;20528;-92
2023/05/23 09:29:11;;;;;;;12.10;4.53;;;25.40;49.80;;;;;;4755465;30;20049;-94
2023/05/23 09:31:43;;;;;;;10.48;4.70;;;25.40;50.80;;;;;;4726800;30;20083;-94
2023/05/23 09:34:11;;;;;;;8.60;5.00;;;25.50;51.50;;;;;;4741186;30;20055;-94
2023/05/23 09:36:42;;;;;;;9.60;4.97;;;25.60;51.00;;;;;;4740829;30;20117;-94
2023/05/23 09:39:12;;;;;;;9.07;4.88;;;25.60;50.20;;;;;;4740053;30;20052;-93
2023/05/23 09:41:39;;;;;;;8.93;4.40;;;25.60;50.50;;;;;;4740749;30;20139;-94
2023/05/23 09:44:09;;;;;;;9.60;5.30;;;25.40;49.60;;;;;;4711837;30;20065;-93
2023/05/23 09:46:37;;;;;;;7.73;4.30;;;25.10;50.80;;;;;;4725743;30;20052;-94
2023/05/23 09:49:16;;;;;;;8.43;4.47;;;25.10;51.00;;;;;;4740586;30;20059;-94
2023/05/23 09:51:57;;;;;;;11.07;5.20;;;25.10;51.80;;;;;;4740287;30;20057;-95
2023/05/23 09:54:24;;;;;;;7.70;4.30;;;25.20;51.70;;;;;;4740491;30;20056;-95
2023/05/23 09:56:54;;;;;;;9.38;4.93;;;25.40;54.00;;;;;;4740682;30;20415;-94
2023/05/23 09:59:25;;;;;;;9.60;4.70;;;25.50;52.10;;;;;;4740421;30;20504;-95
2023/05/23 10:01:55;;;;;;;10.00;4.70;;;25.60;50.70;;;;;;4740910;30;20516;-94
2023/05/23 10:04:24;;;;;;;8.77;4.43;;;25.70;49.90;;;;;;4740595;30;20053;-93
2023/05/23 10:07:09;;;;;;;10.85;4.72;;;25.70;49.80;;;;;;4740211;30;20235;-93
2023/05/23 10:10:05;;;;;;;9.20;4.85;;;25.80;49.20;;;;;;4740344;30;20060;-94
2023/05/23 10:12:45;;;;;;;10.47;5.07;;;25.90;49.20;;;;;;4723080;30;20208;-94
2023/05/23 10:15:15;;;;;;;10.25;4.70;;;25.90;48.30;;;;;;4737729;30;20080;-93
2023/05/23 10:18:02;;;;;;;9.55;5.40;;;25.90;47.90;;;;;;4737820;30;20057;-93
2023/05/23 10:20:31;;;;;;;10.15;4.80;;;26.10;48.10;;;;;;4737484;30;20056;-94
2023/05/23 10:23:00;;;;;;;8.38;4.30;;;26.30;48.30;;;;;;4738001;30;20515;-94
2023/05/23 10:25:30;;;;;;;10.07;4.70;;;26.40;47.50;;;;;;4722900;30;20063;-94
2023/05/23 10:27:58;;;;;;;10.27;5.25;;;26.50;47.90;;;;;;4723201;30;20048;-94
2023/05/23 10:30:29;;;;;;;7.55;4.60;;;26.60;49.20;;;;;;4751596;30;20528;-94
2023/05/23 10:32:58;;;;;;;9.77;5.18;;;26.60;45.60;;;;;;4752066;30;20061;-92
2023/05/23 10:35:34;;;;;;;9.90;5.15;;;26.60;45.80;;;;;;4730921;30;20044;-92
2023/05/23 10:38:12;;;;;;;9.50;4.70;;;26.80;47.00;;;;;;4728469;30;20057;-92
2023/05/23 10:41:15;;;;;;;8.35;4.70;;;26.80;46.00;;;;;;4736338;30;20045;-92
2023/05/23 10:44:03;;;;;;;10.63;5.15;;;26.80;46.10;;;;;;4702278;30;20087;-91
2023/05/23 10:46:53;;;;;;;10.63;4.75;;;26.90;46.10;;;;;;4724078;30;20068;-91
2023/05/23 10:49:21;;;;;;;11.48;6.55;;;26.90;46.30;;;;;;4718666;30;20056;-92
2023/05/23 10:51:52;;;;;;;8.30;4.50;;;27.10;45.20;;;;;;4736189;30;20132;-93
2023/05/23 10:54:19;;;;;;;11.40;5.05;;;26.90;44.20;;;;;;4730971;30;20524;-91
2023/05/23 10:57:01;;;;;;;8.85;4.90;;;27.00;42.20;;;;;;4721692;30;20104;-92
2023/05/23 10:59:29;;;;;;;8.13;4.50;;;27.00;43.20;;;;;;4750689;30;20068;-92
2023/05/23 11:02:00;;;;;;;9.48;4.60;;;26.80;45.30;;;;;;4720957;30;20049;-92
2023/05/23 11:04:28;;;;;;;12.70;5.83;;;26.50;47.60;;;;;;4731481;30;20171;-92
2023/05/23 11:06:56;;;;;;;10.48;5.00;;;26.30;49.40;;;;;;4736067;30;20136;-91
2023/05/23 11:09:23;;;;;;;10.60;5.10;;;26.00;50.60;;;;;;4724651;30;20139;-91
2023/05/23 11:11:51;;;;;;;18.67;5.75;;;25.50;51.60;;;;;;4735692;30;20806;-91
2023/05/23 11:14:39;;;;;;;8.32;5.00;;;25.00;52.60;;;;;;4725784;30;20053;-89
2023/05/23 11:17:12;;;;;;;10.20;5.10;;;24.60;54.60;;;;;;4734964;30;20140;-91
2023/05/23 11:19:54;;;;;;;11.15;5.57;;;24.30;55.30;;;;;;4732679;30;20058;-91
2023/05/23 11:22:26;;;;;;;11.10;4.28;;;24.10;57.20;;;;;;4735151;30;20509;-94
2023/05/23 11:24:54;;;;;;;13.13;4.47;;;23.80;57.60;;;;;;4735721;30;20061;-91
2023/05/23 11:27:28;;;;;;;15.60;4.20;;;23.60;57.50;;;;;;4731993;30;20146;-91
2023/05/23 11:29:59;;;;;;;19.60;3.30;;;23.30;55.10;;;;;;4719543;30;20115;-91
2023/05/23 11:32:30;;;;;;;11.77;3.65;;;22.90;53.60;;;;;;4722286;30;20060;-91
2023/05/23 11:39:25;;;;;;;13.98;2.83;;;22.50;53.40;;;;;;4736202;30;20047;-91
2023/05/23 11:42:05;;;;;;;14.93;2.88;;;22.10;52.40;;;;;;4734250;30;20096;-91
2023/05/23 11:44:32;;;;;;;10.27;3.07;;;21.90;52.90;;;;;;4732890;30;20497;-91
2023/05/23 11:47:05;;;;;;;12.13;3.25;;;21.50;54.20;;;;;;4735739;30;20496;-91
2023/05/23 11:49:35;;;;;;;11.98;4.32;;;21.20;54.30;;;;;;4736025;30;20049;-91
2023/05/23 11:52:03;;;;;;;13.07;4.55;;;21.10;55.90;;;;;;4734966;30;20044;-90
2023/05/23 11:54:30;;;;;;;11.75;4.35;;;21.10;57.00;;;;;;4736934;30;20056;-91
2023/05/23 11:56:57;;;;;;;10.80;3.13;;;21.10;58.50;;;;;;4730196;30;20049;-90
2023/05/23 11:59:27;;;;;;;8.80;3.30;;;20.90;60.10;;;;;;4750165;30;20063;-90
2023/05/23 12:01:55;;;;;;;7.35;3.42;;;20.80;60.90;;;;;;4732818;30;20545;-90
2023/05/23 12:04:25;;;;;;;7.53;3.50;;;20.60;61.40;;;;;;4728957;30;20052;-90
2023/05/23 12:06:52;;;;;;;9.00;3.70;;;20.40;62.60;;;;;;4735446;30;20053;-90
2023/05/23 12:09:19;;;;;;;10.07;3.47;;;20.20;63.80;;;;;;4734788;30;20079;-90
2023/05/23 12:11:48;;;;;;;9.48;3.42;;;20.10;64.80;;;;;;4734562;30;20049;-90
2023/05/23 12:14:16;;;;;;;36.17;5.03;;;20.20;64.60;;;;;;4726343;30;21483;-90
2023/05/23 12:16:45;;;;;;;10.85;4.28;;;20.20;66.10;;;;;;4733918;30;20057;-90
2023/05/23 12:19:16;;;;;;;8.85;3.60;;;20.20;68.30;;;;;;4734773;30;20496;-92
2023/05/23 12:21:52;;;;;;;8.10;3.60;;;20.50;69.30;;;;;;4720506;30;20127;-89
2023/05/23 12:29:15;;;;;;;7.28;3.60;;;20.80;67.40;;;;;;4731614;30;20039;-90
2023/05/23 12:35:25;;;;;;;8.80;4.35;;;21.10;64.40;;;;;;4723432;30;20563;-91
2023/05/23 12:37:55;;;;;;;10.00;4.13;;;21.10;65.80;;;;;;4719501;30;20049;-91
2023/05/23 12:40:22;;;;;;;9.88;4.47;;;21.30;65.60;;;;;;4715554;30;20053;-91
2023/05/23 12:42:53;;;;;;;10.38;4.20;;;21.40;66.60;;;;;;4720343;30;20052;-91
2023/05/23 12:45:33;;;;;;;9.45;3.67;;;21.40;66.40;;;;;;4732543;30;20111;-89
2023/05/23 12:48:00;;;;;;;8.45;4.20;;;21.50;66.20;;;;;;4733529;30;20512;-90
2023/05/23 12:50:28;;;;;;;10.03;3.90;;;21.60;66.00;;;;;;4733858;30;20053;-90
2023/05/23 12:52:59;;;;;;;7.28;3.65;;;21.70;65.70;;;;;;4732714;30;20516;-90
2023/05/23 12:55:35;;;;;;;7.43;3.40;;;21.80;64.80;;;;;;4732318;30;20044;-89
2023/05/23 12:58:02;;;;;;;8.43;3.60;;;21.80;63.40;;;;;;4749743;30;20079;-90
2023/05/23 13:00:30;;;;;;;8.10;3.63;;;21.80;63.80;;;;;;4721846;30;20080;-91
2023/05/23 13:02:57;;;;;;;34.47;4.00;;;21.90;63.70;;;;;;4734037;30;20056;-89
2023/05/23 13:05:25;;;;;;;9.23;3.25;;;22.00;64.10;;;;;;4726489;30;20061;-89
2023/05/23 13:07:52;;;;;;;10.45;3.67;;;22.00;63.90;;;;;;4719241;30;20048;-89
2023/05/23 13:10:19;;;;;;;7.38;3.67;;;22.00;64.00;;;;;;4734689;30;20064;-89
2023/05/23 13:12:46;;;;;;;8.60;3.67;;;21.90;64.00;;;;;;4720262;30;20131;-90
2023/05/23 13:15:13;;;;;;;10.23;4.03;;;21.70;65.00;;;;;;4733910;30;20500;-90
2023/05/23 13:17:40;;;;;;;8.00;3.92;;;21.60;64.30;;;;;;4752596;30;20104;-90
2023/05/23 13:20:14;;;;;;;13.98;4.10;;;21.70;65.20;;;;;;4722445;30;20053;-90
2023/05/23 13:22:41;;;;;;;12.75;5.03;;;21.70;64.20;;;;;;4726572;30;20079;-90